Time;durP1;ratioP1;P1;durP2;ratioP2;P2;SDS_P1;SDS_P2;PMS_P1;PMS_P2;Temp;Humidity;BMP_temperature;BMP_pressure;BME280_temperature;BME280_humidity;BME280_pressure;Samples;Min_cycle;Max_cycle;Signal;HPM_P1;HPM_P2
2021/04/26 00:01:55;;;;;;;48.83;13.23;;;30.30;78.80;;;;;;5089336;28;20316;-51
2021/04/26 00:04:31;;;;;;;40.95;12.15;;;30.30;79.00;;;;;;5072890;28;20028;-50
2021/04/26 00:07:01;;;;;;;47.60;12.85;;;30.30;79.10;;;;;;5107228;28;20046;-53
2021/04/26 00:09:28;;;;;;;53.45;12.48;;;30.30;79.20;;;;;;5089741;28;20020;-57
2021/04/26 00:11:58;;;;;;;43.47;12.93;;;30.30;79.20;;;;;;5106810;28;20087;-49
2021/04/26 00:14:34;;;;;;;39.58;11.13;;;30.20;79.30;;;;;;5107548;28;20059;-50
2021/04/26 00:17:01;;;;;;;35.88;12.18;;;30.30;79.40;;;;;;5089195;28;20016;-51
2021/04/26 00:19:29;;;;;;;47.33;13.02;;;30.30;79.50;;;;;;5089146;28;20028;-47
2021/04/26 00:22:00;;;;;;;55.47;12.48;;;30.30;79.60;;;;;;5088609;28;20024;-50
2021/04/26 00:24:30;;;;;;;52.60;12.47;;;30.20;79.60;;;;;;5089060;28;20035;-54
2021/04/26 00:27:01;;;;;;;35.35;11.10;;;30.20;79.70;;;;;;5104307;28;20262;-52
2021/04/26 00:29:32;;;;;;;36.85;12.10;;;30.20;79.80;;;;;;5087873;28;20089;-46
2021/04/26 00:31:59;;;;;;;32.05;11.85;;;30.20;79.70;;;;;;5073114;28;20061;-45
2021/04/26 00:34:26;;;;;;;43.72;11.50;;;30.20;79.80;;;;;;5072236;28;20300;-42
2021/04/26 00:36:56;;;;;;;41.33;11.52;;;30.20;79.80;;;;;;5106418;28;20344;-50
2021/04/26 00:39:24;;;;;;;32.58;11.10;;;30.20;80.00;;;;;;5088077;28;20217;-54
2021/04/26 00:41:58;;;;;;;31.30;11.48;;;30.10;80.00;;;;;;5106096;28;20024;-51
2021/04/26 00:44:25;;;;;;;31.90;11.52;;;30.10;80.10;;;;;;5088949;28;20051;-56
2021/04/26 00:47:02;;;;;;;39.00;11.60;;;30.10;80.10;;;;;;5106874;28;20027;-53
2021/04/26 00:49:29;;;;;;;37.40;11.60;;;30.10;80.20;;;;;;5071800;28;20036;-52
2021/04/26 00:51:59;;;;;;;35.97;11.40;;;30.10;80.30;;;;;;5088756;28;20024;-57
2021/04/26 00:54:38;;;;;;;30.67;12.68;;;30.10;80.30;;;;;;5072498;28;20051;-57
2021/04/26 00:57:31;;;;;;;39.40;12.00;;;30.10;80.40;;;;;;5075292;28;20213;-55
2021/04/26 01:00:05;;;;;;;31.83;11.40;;;30.00;80.60;;;;;;5033343;28;20064;-55
2021/04/26 01:02:46;;;;;;;30.15;12.02;;;29.80;80.90;;;;;;5032714;28;20035;-54
2021/04/26 01:05:32;;;;;;;26.98;10.60;;;29.80;81.20;;;;;;5001120;28;20069;-52
2021/04/26 01:07:59;;;;;;;29.17;10.98;;;29.70;81.40;;;;;;5033981;28;20021;-48
2021/04/26 01:10:33;;;;;;;28.92;10.05;;;29.60;81.50;;;;;;5015952;28;20101;-55
2021/04/26 01:13:37;;;;;;;29.70;10.45;;;29.60;81.50;;;;;;5033974;28;20021;-52
2021/04/26 01:16:24;;;;;;;23.80;9.45;;;29.60;81.70;;;;;;5033798;28;20022;-54
2021/04/26 01:19:34;;;;;;;24.80;10.52;;;29.50;81.60;;;;;;5032051;28;20394;-54
2021/04/26 01:22:33;;;;;;;30.67;9.98;;;29.50;81.50;;;;;;5024164;28;20034;-54
2021/04/26 01:25:16;;;;;;;23.73;10.00;;;29.50;81.40;;;;;;5024024;28;20064;-52
2021/04/26 01:27:58;;;;;;;24.10;10.93;;;29.40;81.40;;;;;;5007621;28;20127;-52
2021/04/26 01:31:14;;;;;;;21.67;9.98;;;29.40;81.40;;;;;;5028083;28;20037;-48
2021/04/26 01:33:56;;;;;;;21.90;9.57;;;29.40;81.10;;;;;;5032749;28;20028;-46
2021/04/26 01:36:28;;;;;;;23.65;9.35;;;29.50;81.50;;;;;;5041785;28;20187;-53
2021/04/26 01:39:02;;;;;;;26.17;9.70;;;29.50;80.80;;;;;;5043086;28;20033;-55
2021/04/26 01:41:31;;;;;;;23.67;9.82;;;29.50;80.40;;;;;;4991806;28;20287;-46
2021/04/26 01:44:02;;;;;;;24.33;9.77;;;29.60;80.40;;;;;;5023035;28;20306;-47
2021/04/26 01:46:30;;;;;;;26.38;9.13;;;29.60;80.30;;;;;;5023088;28;20101;-52
2021/04/26 01:48:57;;;;;;;22.70;9.65;;;29.60;80.00;;;;;;5006590;28;20126;-46
2021/04/26 01:51:26;;;;;;;25.45;9.75;;;29.60;80.00;;;;;;5022887;28;20053;-49
2021/04/26 01:53:54;;;;;;;24.58;9.38;;;29.60;79.80;;;;;;5008385;28;20027;-49
2021/04/26 01:56:24;;;;;;;28.48;9.90;;;29.60;79.70;;;;;;5026419;28;20032;-50
2021/04/26 01:58:56;;;;;;;19.10;9.55;;;29.60;79.60;;;;;;5026319;28;20067;-51
2021/04/26 02:01:25;;;;;;;25.92;9.20;;;29.60;79.40;;;;;;5025800;28;20156;-48
2021/04/26 02:03:57;;;;;;;19.30;8.80;;;29.60;79.40;;;;;;5042531;28;20021;-45
2021/04/26 02:06:29;;;;;;;25.75;9.90;;;29.60;79.10;;;;;;5042592;28;20345;-46
2021/04/26 02:08:57;;;;;;;29.10;9.70;;;29.60;79.10;;;;;;5057631;28;20040;-54
2021/04/26 02:11:24;;;;;;;22.75;9.15;;;29.60;78.90;;;;;;5101949;28;20220;-50
2021/04/26 02:13:54;;;;;;;23.60;9.55;;;29.50;78.70;;;;;;5103653;28;20020;-45
2021/04/26 02:16:22;;;;;;;23.85;10.15;;;29.50;78.50;;;;;;5104072;28;20043;-47
2021/04/26 02:18:52;;;;;;;22.38;9.15;;;29.50;78.40;;;;;;5103199;28;20044;-51
2021/04/26 02:21:28;;;;;;;24.42;9.10;;;29.50;78.30;;;;;;5104159;28;20047;-53
2021/04/26 02:23:58;;;;;;;28.67;10.25;;;29.50;78.10;;;;;;5087878;28;20125;-47
2021/04/26 02:26:25;;;;;;;23.65;9.25;;;29.50;77.90;;;;;;5103914;28;20060;-47
2021/04/26 02:28:55;;;;;;;23.95;9.32;;;29.50;77.80;;;;;;5092552;28;20063;-48
2021/04/26 02:31:25;;;;;;;22.63;9.10;;;29.50;77.80;;;;;;5084951;28;20058;-49
2021/04/26 02:34:32;;;;;;;24.33;10.07;;;29.50;77.70;;;;;;5104218;28;20020;-46
2021/04/26 02:37:30;;;;;;;20.60;8.63;;;29.50;77.60;;;;;;5104089;28;20020;-49
2021/04/26 02:40:20;;;;;;;22.08;8.85;;;29.50;77.60;;;;;;5104158;28;20288;-46
2021/04/26 02:42:50;;;;;;;21.35;9.13;;;29.40;77.60;;;;;;5103835;28;20090;-53
2021/04/26 02:45:25;;;;;;;20.35;9.98;;;29.40;77.60;;;;;;5084031;28;20313;-50
2021/04/26 02:47:53;;;;;;;18.10;9.70;;;29.40;77.50;;;;;;5104109;28;20028;-47
2021/04/26 02:50:30;;;;;;;22.77;9.70;;;29.40;77.60;;;;;;5104305;28;20028;-41
2021/04/26 02:52:57;;;;;;;23.50;9.10;;;29.40;77.70;;;;;;5103996;28;20020;-50
2021/04/26 02:55:27;;;;;;;23.52;9.68;;;29.40;77.80;;;;;;5104442;28;20304;-46
2021/04/26 02:57:56;;;;;;;22.00;9.48;;;29.40;77.90;;;;;;5103793;28;20336;-50
2021/04/26 03:00:27;;;;;;;19.27;9.80;;;29.30;77.70;;;;;;5103796;28;20031;-50
2021/04/26 03:02:54;;;;;;;21.55;8.93;;;29.40;77.80;;;;;;5103946;28;20027;-51
2021/04/26 03:05:22;;;;;;;20.33;9.02;;;29.30;77.70;;;;;;5104048;28;20032;-51
2021/04/26 03:07:49;;;;;;;27.42;9.18;;;29.40;77.70;;;;;;5103845;28;20309;-50
2021/04/26 03:10:16;;;;;;;20.65;9.27;;;29.30;77.80;;;;;;5085793;28;20093;-58
2021/04/26 03:12:51;;;;;;;22.35;9.70;;;29.30;77.70;;;;;;5103721;28;20020;-54
2021/04/26 03:15:26;;;;;;;22.63;9.65;;;29.30;77.80;;;;;;5103702;28;20016;-46
2021/04/26 03:17:54;;;;;;;20.65;9.82;;;29.30;77.80;;;;;;5103557;28;20020;-46
2021/04/26 03:20:22;;;;;;;18.48;9.05;;;29.30;77.90;;;;;;5104081;28;20028;-49
2021/04/26 03:22:49;;;;;;;18.30;9.18;;;29.30;77.90;;;;;;5103662;28;20028;-48
2021/04/26 03:25:20;;;;;;;20.85;9.85;;;29.20;77.80;;;;;;5103406;28;20055;-55
2021/04/26 03:27:49;;;;;;;22.25;9.45;;;29.20;77.90;;;;;;5103685;28;20354;-45
2021/04/26 03:30:17;;;;;;;23.73;9.63;;;29.20;77.90;;;;;;5106284;28;20309;-44
2021/04/26 03:32:44;;;;;;;21.42;9.30;;;29.20;78.10;;;;;;5107439;28;20213;-54
2021/04/26 03:35:16;;;;;;;26.17;16.40;;;29.20;78.30;;;;;;5107881;28;20066;-51
2021/04/26 03:37:46;;;;;;;26.95;14.25;;;29.10;78.20;;;;;;5107546;28;20012;-51
2021/04/26 03:40:17;;;;;;;33.15;15.95;;;29.10;78.30;;;;;;5107828;28;20024;-46
2021/04/26 03:42:45;;;;;;;24.85;14.23;;;29.10;78.30;;;;;;5107409;28;20024;-53
2021/04/26 03:45:15;;;;;;;30.42;14.38;;;29.10;78.20;;;;;;5107180;28;20035;-46
2021/04/26 03:47:42;;;;;;;24.63;13.38;;;29.10;78.20;;;;;;5107380;28;20026;-51
2021/04/26 03:50:10;;;;;;;93.70;14.63;;;29.10;78.20;;;;;;5107406;28;20032;-53
2021/04/26 03:52:37;;;;;;;33.20;12.50;;;29.10;78.20;;;;;;5107118;28;20008;-54
2021/04/26 03:55:05;;;;;;;32.10;12.63;;;29.10;78.20;;;;;;5107415;28;20027;-54
2021/04/26 03:57:32;;;;;;;23.63;11.32;;;29.00;78.30;;;;;;5105802;28;20027;-53
2021/04/26 03:59:59;;;;;;;23.10;11.15;;;29.00;78.40;;;;;;5107178;28;20027;-47
2021/04/26 04:02:29;;;;;;;26.00;11.32;;;29.00;78.30;;;;;;5107000;28;20020;-52
2021/04/26 04:04:56;;;;;;;28.50;11.43;;;29.00;78.40;;;;;;5107207;28;20228;-54
2021/04/26 04:07:24;;;;;;;20.98;10.43;;;29.00;78.30;;;;;;5106708;28;20019;-47
2021/04/26 04:09:50;;;;;;;24.60;10.57;;;29.00;78.30;;;;;;5107150;28;20087;-50
2021/04/26 04:12:17;;;;;;;23.83;9.70;;;29.00;78.50;;;;;;5106905;28;20053;-52
2021/04/26 04:14:45;;;;;;;29.05;10.55;;;29.00;78.60;;;;;;5106812;28;20028;-51
2021/04/26 04:17:13;;;;;;;28.60;11.07;;;29.00;78.50;;;;;;5106862;28;20020;-45
2021/04/26 04:19:41;;;;;;;23.83;11.10;;;28.90;78.60;;;;;;5106957;28;20103;-53
2021/04/26 04:22:09;;;;;;;25.80;11.60;;;29.00;78.70;;;;;;5106500;28;20016;-50
2021/04/26 04:24:36;;;;;;;30.45;14.43;;;28.90;78.80;;;;;;5106665;28;20316;-50
2021/04/26 04:27:03;;;;;;;32.50;18.13;;;28.90;79.00;;;;;;5106524;28;20016;-46
2021/04/26 04:29:30;;;;;;;40.42;17.75;;;28.90;79.10;;;;;;5103262;28;20127;-47
2021/04/26 04:31:57;;;;;;;34.05;16.70;;;28.90;79.20;;;;;;5091911;28;20023;-60
2021/04/26 04:34:24;;;;;;;24.65;14.63;;;28.90;79.30;;;;;;5086457;28;20213;-46
2021/04/26 04:36:52;;;;;;;29.90;14.95;;;28.80;79.40;;;;;;5086071;28;20305;-50
2021/04/26 04:39:19;;;;;;;21.48;12.88;;;28.80;79.40;;;;;;5086138;28;20028;-54
2021/04/26 04:41:46;;;;;;;26.10;12.25;;;28.80;79.30;;;;;;5067062;28;20032;-54
2021/04/26 04:44:12;;;;;;;22.75;11.93;;;28.80;79.40;;;;;;5085856;28;20027;-53
2021/04/26 04:46:39;;;;;;;19.80;10.73;;;28.80;79.60;;;;;;5086088;28;20017;-49
2021/04/26 04:49:06;;;;;;;22.42;11.50;;;28.70;79.60;;;;;;5067988;28;20029;-51
2021/04/26 04:51:36;;;;;;;23.55;12.10;;;28.70;79.60;;;;;;5085742;28;20070;-54
2021/04/26 04:54:03;;;;;;;21.17;11.75;;;28.70;80.00;;;;;;5085901;28;20023;-50
2021/04/26 04:56:30;;;;;;;24.58;12.13;;;28.70;80.10;;;;;;5085904;28;20378;-49
2021/04/26 04:58:57;;;;;;;22.10;11.55;;;28.70;80.00;;;;;;5085632;28;20056;-46
2021/04/26 05:01:23;;;;;;;25.08;11.95;;;28.70;79.90;;;;;;5085698;28;20020;-48
2021/04/26 05:03:50;;;;;;;28.63;11.40;;;28.70;79.90;;;;;;5085570;28;20020;-48
2021/04/26 05:06:17;;;;;;;27.52;11.95;;;28.70;80.00;;;;;;5085474;28;20024;-52
2021/04/26 05:08:43;;;;;;;23.15;11.23;;;28.70;80.30;;;;;;5085419;28;20016;-46
2021/04/26 05:11:10;;;;;;;23.13;11.95;;;28.60;80.80;;;;;;5085486;28;20313;-53
2021/04/26 05:13:37;;;;;;;27.83;11.82;;;28.60;80.40;;;;;;5067492;28;20025;-48
2021/04/26 05:16:04;;;;;;;23.77;11.23;;;28.60;80.70;;;;;;5085845;28;20052;-47
2021/04/26 05:18:32;;;;;;;23.35;11.02;;;28.50;80.80;;;;;;5085343;28;20016;-51
2021/04/26 05:20:59;;;;;;;24.10;11.27;;;28.60;80.80;;;;;;5085642;28;20056;-47
2021/04/26 05:23:26;;;;;;;23.23;11.35;;;28.60;80.90;;;;;;5085265;28;20021;-55
2021/04/26 05:25:52;;;;;;;22.52;10.73;;;28.50;80.80;;;;;;5087122;28;20333;-43
2021/04/26 05:28:19;;;;;;;22.83;10.85;;;28.50;80.90;;;;;;5105228;28;20036;-46
2021/04/26 05:30:46;;;;;;;22.95;11.70;;;28.60;81.10;;;;;;5105826;28;20057;-45
2021/04/26 05:33:15;;;;;;;27.15;11.57;;;28.50;81.10;;;;;;5105309;28;20024;-42
2021/04/26 05:35:41;;;;;;;21.45;11.05;;;28.60;81.20;;;;;;5105531;28;20024;-49
2021/04/26 05:38:13;;;;;;;21.88;11.43;;;28.50;81.10;;;;;;5105460;28;20083;-51
2021/04/26 05:40:40;;;;;;;25.90;11.13;;;28.60;81.20;;;;;;5105574;28;20019;-49
2021/04/26 05:43:09;;;;;;;17.20;9.70;;;28.50;81.00;;;;;;5104876;28;20024;-47
2021/04/26 05:45:36;;;;;;;20.88;10.48;;;28.50;81.00;;;;;;5105400;28;20020;-49
2021/04/26 05:48:03;;;;;;;22.38;10.77;;;28.50;81.10;;;;;;5105056;28;20190;-49
2021/04/26 05:50:30;;;;;;;16.35;10.10;;;28.50;80.70;;;;;;5105107;28;20204;-47
2021/04/26 05:52:58;;;;;;;19.13;9.88;;;28.50;80.60;;;;;;5104757;28;20020;-47
2021/04/26 05:55:25;;;;;;;22.40;10.60;;;28.50;80.50;;;;;;5090586;28;20205;-47
2021/04/26 05:57:52;;;;;;;16.55;9.40;;;28.50;80.40;;;;;;5084398;28;20024;-46
2021/04/26 06:00:19;;;;;;;18.25;10.15;;;28.50;80.40;;;;;;5084859;28;20039;-46
2021/04/26 06:02:46;;;;;;;15.07;10.05;;;28.50;80.60;;;;;;5084470;28;20016;-49
2021/04/26 06:05:13;;;;;;;16.20;10.65;;;28.50;80.50;;;;;;5084413;28;20035;-50
2021/04/26 06:07:41;;;;;;;18.58;9.52;;;28.50;80.40;;;;;;5084485;28;20066;-46
2021/04/26 06:10:08;;;;;;;16.02;9.90;;;28.50;80.30;;;;;;5084598;28;20032;-50
2021/04/26 06:12:35;;;;;;;19.40;10.38;;;28.50;80.20;;;;;;5066503;28;20025;-47
2021/04/26 06:15:03;;;;;;;25.92;10.48;;;28.50;80.20;;;;;;5084196;28;20017;-52
2021/04/26 06:17:30;;;;;;;21.67;10.65;;;28.50;80.20;;;;;;5084211;28;20024;-54
2021/04/26 06:19:56;;;;;;;16.55;9.38;;;28.50;80.50;;;;;;5084282;28;20020;-54
2021/04/26 06:22:23;;;;;;;20.00;10.00;;;28.40;80.50;;;;;;5066277;28;20035;-52
2021/04/26 06:24:50;;;;;;;20.30;9.82;;;28.40;80.80;;;;;;5084048;28;20049;-49
2021/04/26 06:27:17;;;;;;;25.13;11.02;;;28.40;80.80;;;;;;5084008;28;20078;-45
2021/04/26 06:29:43;;;;;;;24.83;10.57;;;28.40;80.80;;;;;;5084187;28;20058;-47
2021/04/26 06:32:10;;;;;;;27.35;10.30;;;28.40;80.70;;;;;;5084042;28;20044;-50
2021/04/26 06:34:37;;;;;;;20.80;9.93;;;28.40;80.80;;;;;;5083981;28;20093;-54
2021/04/26 06:37:04;;;;;;;16.17;10.15;;;28.40;80.70;;;;;;5083940;28;20016;-45
2021/04/26 06:39:31;;;;;;;18.02;10.35;;;28.40;80.70;;;;;;5083990;28;20032;-47
2021/04/26 06:42:00;;;;;;;20.52;10.25;;;28.40;80.70;;;;;;5083767;28;20305;-52
2021/04/26 06:44:27;;;;;;;18.48;10.27;;;28.40;80.70;;;;;;5083908;28;20039;-46
2021/04/26 06:46:54;;;;;;;19.23;10.55;;;28.30;80.50;;;;;;5083955;28;20052;-53
2021/04/26 06:49:20;;;;;;;18.45;10.35;;;28.30;80.50;;;;;;5083774;28;20030;-48
2021/04/26 06:51:48;;;;;;;23.95;10.23;;;28.30;80.70;;;;;;5083744;28;20087;-46
2021/04/26 06:54:15;;;;;;;23.15;10.15;;;28.30;80.70;;;;;;5083803;28;20096;-45
2021/04/26 06:56:42;;;;;;;20.73;10.63;;;28.30;80.60;;;;;;5083640;28;20013;-52
2021/04/26 06:59:09;;;;;;;25.15;11.10;;;28.30;80.60;;;;;;5083706;28;20031;-49
2021/04/26 07:01:36;;;;;;;24.83;10.48;;;28.20;81.00;;;;;;5083769;28;20313;-52
2021/04/26 07:04:03;;;;;;;17.05;10.30;;;28.20;80.50;;;;;;5084202;28;20074;-48
2021/04/26 07:06:30;;;;;;;22.30;11.05;;;28.20;80.60;;;;;;5087772;28;20068;-50
2021/04/26 07:08:57;;;;;;;20.45;10.93;;;28.20;80.60;;;;;;5087815;28;20257;-51
2021/04/26 07:11:24;;;;;;;22.55;10.68;;;28.20;80.70;;;;;;5069739;28;20040;-57
2021/04/26 07:13:50;;;;;;;25.15;11.05;;;28.20;80.70;;;;;;5069874;28;20266;-49
2021/04/26 07:16:17;;;;;;;22.70;10.80;;;28.20;80.70;;;;;;5087731;28;20017;-48
2021/04/26 07:18:44;;;;;;;18.52;10.20;;;28.20;80.70;;;;;;5087499;28;20216;-52
2021/04/26 07:21:12;;;;;;;22.85;11.07;;;28.20;80.70;;;;;;5087520;28;20032;-44
2021/04/26 07:23:39;;;;;;;19.33;10.40;;;28.20;80.70;;;;;;5087507;28;20354;-48
2021/04/26 07:26:06;;;;;;;21.77;10.48;;;28.20;80.60;;;;;;5087453;28;20075;-52
2021/04/26 07:28:34;;;;;;;22.98;10.73;;;28.20;80.60;;;;;;5087246;28;20063;-46
2021/04/26 07:31:01;;;;;;;22.80;10.70;;;28.20;80.70;;;;;;5069794;28;20029;-50
2021/04/26 07:33:27;;;;;;;20.73;10.90;;;28.10;80.80;;;;;;5087398;28;20013;-46
2021/04/26 07:35:54;;;;;;;20.10;10.93;;;28.10;80.80;;;;;;5087675;28;20017;-46
2021/04/26 07:38:21;;;;;;;19.73;10.30;;;28.10;80.60;;;;;;5087283;28;20117;-52
2021/04/26 07:40:47;;;;;;;21.55;10.77;;;28.20;80.70;;;;;;5087615;28;20079;-47
2021/04/26 07:43:14;;;;;;;18.00;10.95;;;28.20;80.70;;;;;;5087001;28;20021;-46
2021/04/26 07:45:41;;;;;;;19.45;10.50;;;28.10;80.60;;;;;;5087706;28;20024;-45
2021/04/26 07:48:07;;;;;;;21.83;10.57;;;28.10;80.60;;;;;;5087024;28;20032;-49
2021/04/26 07:50:34;;;;;;;20.45;10.05;;;28.10;80.60;;;;;;5087240;28;20025;-46
2021/04/26 07:53:01;;;;;;;18.42;10.57;;;28.10;80.60;;;;;;5086935;28;20025;-51
2021/04/26 07:55:28;;;;;;;17.58;10.82;;;28.10;80.50;;;;;;5087333;28;20012;-55
2021/04/26 07:57:55;;;;;;;18.80;10.00;;;28.20;80.60;;;;;;5086759;28;20020;-50
2021/04/26 08:00:22;;;;;;;18.65;10.60;;;28.20;80.40;;;;;;5087113;28;20032;-48
2021/04/26 08:02:49;;;;;;;17.92;10.63;;;28.20;80.30;;;;;;5086703;28;20052;-50
2021/04/26 08:05:16;;;;;;;19.88;10.48;;;28.20;80.20;;;;;;5086973;28;20193;-50
2021/04/26 08:07:42;;;;;;;22.27;11.02;;;28.20;80.20;;;;;;5086718;28;20034;-45
2021/04/26 08:10:09;;;;;;;18.90;11.13;;;28.20;80.20;;;;;;5086879;28;20239;-49
2021/04/26 08:12:36;;;;;;;18.30;11.23;;;28.20;80.10;;;;;;5086751;28;20024;-47
2021/04/26 08:15:05;;;;;;;18.75;10.63;;;28.30;80.10;;;;;;5086805;28;20024;-50
2021/04/26 08:17:32;;;;;;;21.30;10.70;;;28.20;80.00;;;;;;5086529;28;20309;-47
2021/04/26 08:19:59;;;;;;;21.15;11.07;;;28.30;80.10;;;;;;5086539;28;20020;-47
2021/04/26 08:22:26;;;;;;;18.60;10.38;;;28.30;80.10;;;;;;5086326;28;20318;-46
2021/04/26 08:24:52;;;;;;;19.05;11.02;;;28.30;80.10;;;;;;5086383;28;20044;-55
2021/04/26 08:27:19;;;;;;;20.15;10.95;;;28.20;80.00;;;;;;5086261;28;20036;-53
2021/04/26 08:29:46;;;;;;;20.88;11.88;;;28.30;80.10;;;;;;5086434;28;20032;-48
2021/04/26 08:32:13;;;;;;;17.92;10.35;;;28.30;80.10;;;;;;5086259;28;20088;-52
2021/04/26 08:34:39;;;;;;;20.25;11.38;;;28.20;80.00;;;;;;5086298;28;20018;-45
2021/04/26 08:37:06;;;;;;;22.20;10.60;;;28.20;80.10;;;;;;5086220;28;20024;-49
2021/04/26 08:39:33;;;;;;;20.00;10.68;;;28.20;80.10;;;;;;5086507;28;20012;-47
2021/04/26 08:42:00;;;;;;;21.88;11.15;;;28.20;80.10;;;;;;5085976;28;20021;-48
2021/04/26 08:44:26;;;;;;;22.52;11.23;;;28.30;80.30;;;;;;5086048;28;20016;-53
2021/04/26 08:46:56;;;;;;;16.30;11.02;;;28.30;80.30;;;;;;5086124;28;20037;-46
2021/04/26 08:49:22;;;;;;;22.58;11.38;;;28.20;80.20;;;;;;5085823;28;20020;-54
2021/04/26 08:51:49;;;;;;;21.05;11.07;;;28.20;80.20;;;;;;5085934;28;20033;-51
2021/04/26 08:54:17;;;;;;;18.90;11.60;;;28.30;80.30;;;;;;5085995;28;20023;-54
2021/04/26 08:56:45;;;;;;;19.35;10.60;;;28.20;80.30;;;;;;5085670;28;20043;-51
2021/04/26 08:59:13;;;;;;;24.10;11.20;;;28.30;80.40;;;;;;5085839;28;20035;-50
2021/04/26 09:01:39;;;;;;;25.92;11.55;;;28.30;80.40;;;;;;5085704;28;20031;-48
2021/04/26 09:04:09;;;;;;;22.33;11.25;;;28.20;80.30;;;;;;5085532;28;20027;-49
2021/04/26 09:06:58;;;;;;;21.73;10.88;;;28.30;80.50;;;;;;5085700;28;20032;-53
2021/04/26 09:09:36;;;;;;;21.90;10.77;;;28.20;80.50;;;;;;5085353;28;20016;-51
2021/04/26 09:12:04;;;;;;;18.55;10.95;;;28.20;80.50;;;;;;5085404;28;20025;-48
2021/04/26 09:14:45;;;;;;;20.30;11.07;;;28.20;80.60;;;;;;5085522;28;20058;-49
2021/04/26 09:17:37;;;;;;;21.58;11.80;;;28.20;80.60;;;;;;5085268;28;20032;-49
2021/04/26 09:20:16;;;;;;;21.67;10.93;;;28.20;80.70;;;;;;5082779;28;20039;-47
2021/04/26 09:22:54;;;;;;;19.15;10.68;;;28.20;80.70;;;;;;5085350;28;20034;-47
2021/04/26 09:25:36;;;;;;;16.80;10.75;;;28.20;80.70;;;;;;5084966;28;20075;-46
2021/04/26 09:28:04;;;;;;;20.88;11.40;;;28.20;80.80;;;;;;5084751;28;20025;-51
2021/04/26 09:30:44;;;;;;;19.20;11.15;;;28.20;80.80;;;;;;5084845;28;20028;-50
2021/04/26 09:33:35;;;;;;;22.30;11.07;;;28.20;80.90;;;;;;5084965;28;20036;-49
2021/04/26 09:36:18;;;;;;;21.98;11.73;;;28.20;80.90;;;;;;5085501;28;20083;-53
2021/04/26 09:38:46;;;;;;;20.50;11.05;;;28.20;80.90;;;;;;5067007;28;20099;-50
2021/04/26 09:41:23;;;;;;;19.60;11.07;;;28.20;81.00;;;;;;5084844;28;20091;-47
2021/04/26 09:44:02;;;;;;;21.58;10.88;;;28.20;81.10;;;;;;5084707;28;20194;-50
2021/04/26 09:46:46;;;;;;;20.73;10.73;;;28.10;81.00;;;;;;5084712;28;20050;-49
2021/04/26 09:49:21;;;;;;;18.23;11.07;;;28.10;81.10;;;;;;5084785;28;20301;-53
2021/04/26 09:51:53;;;;;;;21.90;11.13;;;28.10;81.00;;;;;;5084605;28;20027;-43
2021/04/26 09:54:41;;;;;;;20.55;10.77;;;28.10;81.10;;;;;;5084907;28;20048;-53
2021/04/26 09:57:08;;;;;;;17.80;10.75;;;28.10;81.10;;;;;;5084545;28;20059;-46
2021/04/26 09:59:35;;;;;;;20.00;10.52;;;28.10;81.10;;;;;;5084647;28;20032;-56
2021/04/26 10:02:03;;;;;;;24.08;11.00;;;28.10;81.20;;;;;;5084430;28;20317;-55
2021/04/26 10:04:30;;;;;;;20.15;11.27;;;28.10;81.10;;;;;;5098454;28;20050;-49
2021/04/26 10:06:57;;;;;;;26.35;11.15;;;28.10;81.30;;;;;;5104642;28;20250;-45
2021/04/26 10:09:24;;;;;;;21.08;11.63;;;28.10;81.40;;;;;;5104471;28;20028;-48
2021/04/26 10:11:51;;;;;;;19.85;11.50;;;28.10;81.40;;;;;;5104671;28;20020;-50
2021/04/26 10:14:18;;;;;;;30.27;11.35;;;28.10;81.40;;;;;;5104705;28;20037;-48
2021/04/26 10:17:10;;;;;;;23.77;12.48;;;28.10;81.40;;;;;;5104319;28;20027;-47
2021/04/26 10:19:47;;;;;;;27.20;10.87;;;28.10;81.40;;;;;;5104644;28;20124;-52
2021/04/26 10:22:13;;;;;;;26.27;11.75;;;28.10;81.70;;;;;;5104555;28;20042;-48
2021/04/26 10:24:56;;;;;;;22.52;11.20;;;28.10;81.80;;;;;;5104465;28;20032;-45
2021/04/26 10:27:34;;;;;;;21.52;11.23;;;28.00;81.70;;;;;;5104170;28;20070;-47
2021/04/26 10:30:09;;;;;;;23.85;11.63;;;28.00;81.70;;;;;;5104602;28;20036;-46
2021/04/26 10:32:56;;;;;;;22.70;11.27;;;28.00;81.80;;;;;;5104077;28;20055;-49
2021/04/26 10:35:24;;;;;;;33.50;12.48;;;28.00;81.80;;;;;;5093941;28;20018;-46
2021/04/26 10:37:51;;;;;;;52.08;13.43;;;28.00;82.00;;;;;;5083711;28;20031;-47
2021/04/26 10:40:23;;;;;;;32.10;12.65;;;28.00;81.90;;;;;;5083570;28;20126;-50
2021/04/26 10:42:54;;;;;;;36.97;11.55;;;28.00;82.00;;;;;;5083788;28;20056;-46
2021/04/26 10:45:26;;;;;;;38.33;12.63;;;28.00;82.00;;;;;;5066103;28;20024;-53
2021/04/26 10:47:59;;;;;;;31.85;12.95;;;28.00;82.30;;;;;;5084103;28;20048;-52
2021/04/26 10:50:25;;;;;;;36.30;13.13;;;28.00;82.40;;;;;;5083971;28;20053;-51
2021/04/26 10:52:53;;;;;;;28.63;12.40;;;28.00;82.40;;;;;;5083865;28;20040;-55
2021/04/26 10:55:22;;;;;;;60.55;14.07;;;27.90;82.40;;;;;;5084154;28;20204;-50
2021/04/26 10:57:51;;;;;;;39.33;12.80;;;28.00;82.80;;;;;;5083558;28;20021;-49
2021/04/26 11:00:27;;;;;;;36.53;12.55;;;27.90;82.60;;;;;;5084016;28;20024;-46
2021/04/26 11:03:07;;;;;;;39.25;13.80;;;27.90;83.10;;;;;;5083630;28;20025;-52
2021/04/26 11:05:36;;;;;;;36.10;13.10;;;27.90;83.50;;;;;;5084000;28;20043;-50
2021/04/26 11:08:17;;;;;;;36.78;13.23;;;27.90;83.70;;;;;;5083594;28;20025;-51
2021/04/26 11:10:50;;;;;;;36.10;13.20;;;27.90;83.80;;;;;;5084023;28;20209;-50
2021/04/26 11:13:34;;;;;;;32.75;15.60;;;27.90;83.90;;;;;;5083603;28;20079;-48
2021/04/26 11:16:07;;;;;;;40.25;14.68;;;28.00;84.00;;;;;;5084167;28;20043;-49
2021/04/26 11:18:36;;;;;;;44.05;14.95;;;27.90;83.90;;;;;;5083523;28;20036;-45
2021/04/26 11:21:04;;;;;;;33.97;13.80;;;28.00;83.90;;;;;;5083818;28;20020;-47
2021/04/26 11:23:56;;;;;;;39.22;14.07;;;28.00;83.60;;;;;;5083567;28;20017;-46
2021/04/26 11:26:24;;;;;;;49.85;14.30;;;28.10;83.30;;;;;;5083168;28;20336;-48
2021/04/26 11:29:11;;;;;;;52.60;15.00;;;28.20;82.90;;;;;;5083093;28;20043;-50
2021/04/26 11:31:44;;;;;;;38.13;14.95;;;28.40;82.40;;;;;;5083228;28;20039;-52
2021/04/26 11:34:12;;;;;;;39.08;13.30;;;28.60;81.50;;;;;;5083376;28;20025;-48
2021/04/26 11:37:02;;;;;;;40.92;13.93;;;28.70;81.00;;;;;;5083332;28;20017;-49
2021/04/26 11:39:32;;;;;;;41.60;14.10;;;28.80;80.70;;;;;;5083439;28;20025;-45
2021/04/26 11:42:02;;;;;;;46.88;14.02;;;29.10;80.00;;;;;;5083246;28;20012;-51
2021/04/26 11:44:31;;;;;;;40.03;13.48;;;29.20;79.30;;;;;;5083395;28;20088;-49
2021/04/26 11:47:19;;;;;;;43.25;13.27;;;29.40;78.80;;;;;;5083261;28;20019;-54
2021/04/26 11:49:48;;;;;;;32.55;13.63;;;29.50;78.20;;;;;;5065841;28;20028;-52
2021/04/26 11:52:30;;;;;;;35.63;13.35;;;29.50;78.10;;;;;;5086918;28;20017;-46
2021/04/26 11:55:04;;;;;;;43.13;12.60;;;29.40;78.20;;;;;;5086970;28;20205;-54
2021/04/26 11:57:39;;;;;;;33.75;12.60;;;29.40;78.60;;;;;;5086752;28;20013;-47
2021/04/26 12:00:13;;;;;;;38.92;12.38;;;29.30;78.80;;;;;;5087193;28;20060;-46
2021/04/26 12:02:45;;;;;;;32.13;11.80;;;29.30;79.00;;;;;;5086954;28;20013;-53
2021/04/26 12:05:18;;;;;;;34.10;12.20;;;29.30;78.90;;;;;;5086941;28;20332;-47
2021/04/26 12:07:46;;;;;;;32.03;13.53;;;29.30;79.10;;;;;;5086883;28;20031;-48
2021/04/26 12:10:15;;;;;;;39.33;12.88;;;29.30;79.20;;;;;;5086877;28;20572;-53
2021/04/26 12:12:43;;;;;;;33.30;13.35;;;29.30;79.20;;;;;;5086520;28;20305;-55
2021/04/26 12:15:19;;;;;;;29.98;12.30;;;29.30;79.30;;;;;;5086977;28;20021;-52
2021/04/26 12:17:54;;;;;;;28.85;13.20;;;29.30;79.30;;;;;;5086600;28;20031;-46
2021/04/26 12:20:36;;;;;;;33.30;13.05;;;29.30;79.40;;;;;;5070111;28;20347;-48
2021/04/26 12:23:15;;;;;;;28.30;11.45;;;29.30;79.50;;;;;;5086593;28;20210;-50
2021/04/26 12:25:48;;;;;;;25.75;12.50;;;29.30;79.60;;;;;;5086393;28;20245;-44
2021/04/26 12:28:15;;;;;;;26.90;11.07;;;29.30;79.70;;;;;;5086244;28;20329;-47
2021/04/26 12:30:44;;;;;;;26.25;11.68;;;29.30;79.90;;;;;;5086304;28;20040;-51
2021/04/26 12:33:32;;;;;;;30.48;11.80;;;29.30;79.70;;;;;;5086345;28;20016;-49
2021/04/26 12:36:01;;;;;;;24.98;11.65;;;29.30;79.60;;;;;;5086697;28;20075;-47
2021/04/26 12:38:33;;;;;;;24.45;11.05;;;29.30;79.70;;;;;;5086199;28;20020;-47
2021/04/26 12:41:00;;;;;;;22.52;10.93;;;29.20;79.60;;;;;;5086377;28;20031;-50
2021/04/26 12:43:38;;;;;;;22.58;12.27;;;29.30;79.60;;;;;;5086012;28;20070;-49
2021/04/26 12:46:10;;;;;;;26.60;12.93;;;29.40;79.60;;;;;;5085783;28;20213;-50
2021/04/26 12:48:37;;;;;;;21.55;11.10;;;29.40;79.70;;;;;;5086042;28;20313;-46